sensor_id;sensor_type;location;lat;lon;timestamp;P1;durP1;ratioP1;P2;durP2;ratioP2
73452;SDS011;61687;56.232;43.854;2023-06-10T06:06:38;4.78;;;2.90;;
73452;SDS011;61687;56.232;43.854;2023-06-10T06:09:05;4.97;;;2.57;;
73452;SDS011;61687;56.232;43.854;2023-06-10T06:11:33;3.25;;;2.10;;
73452;SDS011;61687;56.232;43.854;2023-06-10T06:13:59;7.68;;;3.10;;
73452;SDS011;61687;56.232;43.854;2023-06-10T06:16:25;8.47;;;2.63;;
73452;SDS011;61687;56.232;43.854;2023-06-10T06:18:51;3.33;;;2.10;;
73452;SDS011;61687;56.232;43.854;2023-06-10T06:21:17;3.88;;;2.00;;
73452;SDS011;61687;56.232;43.854;2023-06-10T06:23:42;4.13;;;2.27;;
73452;SDS011;61687;56.232;43.854;2023-06-10T06:26:08;3.85;;;2.38;;
73452;SDS011;61687;56.232;43.854;2023-06-10T06:28:34;7.63;;;2.90;;
73452;SDS011;61687;56.232;43.854;2023-06-10T06:31:00;3.97;;;2.40;;
73452;SDS011;61687;56.232;43.854;2023-06-10T06:33:26;4.43;;;2.13;;
73452;SDS011;61687;56.232;43.854;2023-06-10T06:35:52;7.30;;;2.78;;
73452;SDS011;61687;56.232;43.854;2023-06-10T06:38:18;4.40;;;2.00;;
73452;SDS011;61687;56.232;43.854;2023-06-10T06:40:44;4.35;;;2.22;;
73452;SDS011;61687;56.232;43.854;2023-06-10T06:43:09;4.93;;;2.17;;
73452;SDS011;61687;56.232;43.854;2023-06-10T06:45:35;5.00;;;2.45;;
73452;SDS011;61687;56.232;43.854;2023-06-10T06:48:01;3.95;;;2.10;;
73452;SDS011;61687;56.232;43.854;2023-06-10T06:50:27;4.73;;;2.10;;
73452;SDS011;61687;56.232;43.854;2023-06-10T06:52:53;3.50;;;1.70;;
73452;SDS011;61687;56.232;43.854;2023-06-10T06:55:19;4.07;;;2.60;;
73452;SDS011;61687;56.232;43.854;2023-06-10T06:57:45;2.80;;;1.80;;
73452;SDS011;61687;56.232;43.854;2023-06-10T07:00:12;5.68;;;2.20;;
73452;SDS011;61687;56.232;43.854;2023-06-10T07:02:38;7.43;;;2.28;;
73452;SDS011;61687;56.232;43.854;2023-06-10T07:05:04;4.38;;;1.88;;
73452;SDS011;61687;56.232;43.854;2023-06-10T07:07:30;3.70;;;2.47;;
73452;SDS011;61687;56.232;43.854;2023-06-10T07:09:56;4.10;;;1.93;;
73452;SDS011;61687;56.232;43.854;2023-06-10T07:12:22;6.35;;;2.45;;
73452;SDS011;61687;56.232;43.854;2023-06-10T07:14:49;3.83;;;2.20;;
73452;SDS011;61687;56.232;43.854;2023-06-10T07:17:16;5.30;;;2.37;;
73452;SDS011;61687;56.232;43.854;2023-06-10T07:19:43;4.32;;;2.28;;
73452;SDS011;61687;56.232;43.854;2023-06-10T07:22:10;5.38;;;2.20;;
73452;SDS011;61687;56.232;43.854;2023-06-10T07:24:35;4.65;;;2.25;;
73452;SDS011;61687;56.232;43.854;2023-06-10T07:27:01;3.73;;;2.23;;
73452;SDS011;61687;56.232;43.854;2023-06-10T07:29:27;7.18;;;2.33;;
73452;SDS011;61687;56.232;43.854;2023-06-10T07:31:53;8.52;;;2.65;;
73452;SDS011;61687;56.232;43.854;2023-06-10T07:34:19;9.77;;;4.00;;
73452;SDS011;61687;56.232;43.854;2023-06-10T07:36:45;6.90;;;3.45;;
73452;SDS011;61687;56.232;43.854;2023-06-10T07:39:11;7.80;;;2.33;;
73452;SDS011;61687;56.232;43.854;2023-06-10T07:41:36;8.87;;;2.93;;
73452;SDS011;61687;56.232;43.854;2023-06-10T07:44:02;3.80;;;2.53;;
73452;SDS011;61687;56.232;43.854;2023-06-10T07:46:28;18.40;;;3.70;;
73452;SDS011;61687;56.232;43.854;2023-06-10T07:48:54;28.57;;;18.63;;
73452;SDS011;61687;56.232;43.854;2023-06-10T07:51:20;5.55;;;2.50;;
73452;SDS011;61687;56.232;43.854;2023-06-10T07:53:47;7.70;;;2.70;;
73452;SDS011;61687;56.232;43.854;2023-06-10T07:56:12;6.18;;;2.92;;
73452;SDS011;61687;56.232;43.854;2023-06-10T07:58:38;3.60;;;2.00;;
73452;SDS011;61687;56.232;43.854;2023-06-10T08:01:04;4.38;;;2.80;;
73452;SDS011;61687;56.232;43.854;2023-06-10T08:03:30;5.85;;;2.20;;
73452;SDS011;61687;56.232;43.854;2023-06-10T08:05:56;6.40;;;2.53;;
73452;SDS011;61687;56.232;43.854;2023-06-10T08:08:22;6.07;;;2.70;;
73452;SDS011;61687;56.232;43.854;2023-06-10T08:10:48;6.72;;;2.67;;
73452;SDS011;61687;56.232;43.854;2023-06-10T08:13:14;3.83;;;2.63;;
73452;SDS011;61687;56.232;43.854;2023-06-10T08:15:40;9.07;;;3.53;;
73452;SDS011;61687;56.232;43.854;2023-06-10T08:18:06;6.68;;;2.60;;
73452;SDS011;61687;56.232;43.854;2023-06-10T08:20:32;6.47;;;2.67;;
73452;SDS011;61687;56.232;43.854;2023-06-10T08:22:58;4.27;;;1.93;;
73452;SDS011;61687;56.232;43.854;2023-06-10T08:25:24;4.90;;;2.97;;
73452;SDS011;61687;56.232;43.854;2023-06-10T08:27:50;6.88;;;2.15;;
73452;SDS011;61687;56.232;43.854;2023-06-10T08:30:17;6.63;;;2.73;;
73452;SDS011;61687;56.232;43.854;2023-06-10T08:32:43;3.70;;;1.80;;
73452;SDS011;61687;56.232;43.854;2023-06-10T08:35:09;4.78;;;2.13;;
73452;SDS011;61687;56.232;43.854;2023-06-10T08:37:35;6.77;;;2.80;;
73452;SDS011;61687;56.232;43.854;2023-06-10T08:40:01;5.90;;;2.90;;
73452;SDS011;61687;56.232;43.854;2023-06-10T08:45:00;4.40;;;2.35;;
73452;SDS011;61687;56.232;43.854;2023-06-10T08:47:30;4.80;;;2.67;;
73452;SDS011;61687;56.232;43.854;2023-06-10T08:50:04;4.70;;;2.50;;
73452;SDS011;61687;56.232;43.854;2023-06-10T08:52:35;4.70;;;2.45;;
73452;SDS011;61687;56.232;43.854;2023-06-10T08:55:13;4.63;;;2.42;;
73452;SDS011;61687;56.232;43.854;2023-06-10T08:57:45;5.60;;;2.50;;
73452;SDS011;61687;56.232;43.854;2023-06-10T09:00:13;7.00;;;2.42;;
73452;SDS011;61687;56.232;43.854;2023-06-10T09:02:39;7.90;;;3.50;;
73452;SDS011;61687;56.232;43.854;2023-06-10T09:05:05;24.83;;;6.68;;
73452;SDS011;61687;56.232;43.854;2023-06-10T09:07:32;5.70;;;2.63;;
73452;SDS011;61687;56.232;43.854;2023-06-10T09:10:00;4.80;;;2.42;;
73452;SDS011;61687;56.232;43.854;2023-06-10T09:12:29;5.47;;;2.30;;
73452;SDS011;61687;56.232;43.854;2023-06-10T09:14:55;7.78;;;2.42;;
73452;SDS011;61687;56.232;43.854;2023-06-10T09:17:21;6.82;;;3.80;;
73452;SDS011;61687;56.232;43.854;2023-06-10T09:19:47;5.22;;;2.40;;
73452;SDS011;61687;56.232;43.854;2023-06-10T09:22:15;7.45;;;3.08;;
73452;SDS011;61687;56.232;43.854;2023-06-10T09:24:41;4.30;;;2.17;;
73452;SDS011;61687;56.232;43.854;2023-06-10T09:27:07;6.13;;;2.40;;
73452;SDS011;61687;56.232;43.854;2023-06-10T09:29:47;12.30;;;2.78;;
73452;SDS011;61687;56.232;43.854;2023-06-10T09:32:13;10.77;;;2.40;;
73452;SDS011;61687;56.232;43.854;2023-06-10T09:34:39;4.10;;;2.17;;
73452;SDS011;61687;56.232;43.854;2023-06-10T09:37:06;5.57;;;2.25;;
73452;SDS011;61687;56.232;43.854;2023-06-10T09:39:33;6.57;;;2.35;;
73452;SDS011;61687;56.232;43.854;2023-06-10T09:41:59;7.25;;;3.05;;
73452;SDS011;61687;56.232;43.854;2023-06-10T09:44:25;5.17;;;2.50;;
73452;SDS011;61687;56.232;43.854;2023-06-10T09:46:51;5.05;;;2.50;;
73452;SDS011;61687;56.232;43.854;2023-06-10T09:49:17;4.65;;;2.30;;
73452;SDS011;61687;56.232;43.854;2023-06-10T09:51:53;5.72;;;2.38;;
73452;SDS011;61687;56.232;43.854;2023-06-10T09:54:20;4.63;;;2.90;;
73452;SDS011;61687;56.232;43.854;2023-06-10T09:56:47;6.00;;;2.65;;
73452;SDS011;61687;56.232;43.854;2023-06-10T09:59:14;6.30;;;3.38;;
73452;SDS011;61687;56.232;43.854;2023-06-10T10:01:40;5.97;;;3.15;;
73452;SDS011;61687;56.232;43.854;2023-06-10T10:04:05;5.03;;;2.70;;
73452;SDS011;61687;56.232;43.854;2023-06-10T10:06:31;9.15;;;3.00;;
73452;SDS011;61687;56.232;43.854;2023-06-10T10:08:57;3.47;;;2.17;;
73452;SDS011;61687;56.232;43.854;2023-06-10T10:11:23;5.70;;;2.70;;
73452;SDS011;61687;56.232;43.854;2023-06-10T10:13:52;4.18;;;2.60;;
73452;SDS011;61687;56.232;43.854;2023-06-10T10:16:22;3.22;;;2.45;;
73452;SDS011;61687;56.232;43.854;2023-06-10T10:19:04;6.13;;;3.53;;
73452;SDS011;61687;56.232;43.854;2023-06-10T10:21:35;4.32;;;2.65;;
73452;SDS011;61687;56.232;43.854;2023-06-10T10:24:20;6.10;;;3.67;;
73452;SDS011;61687;56.232;43.854;2023-06-10T10:26:49;5.18;;;3.42;;
73452;SDS011;61687;56.232;43.854;2023-06-10T10:29:19;5.70;;;3.13;;
73452;SDS011;61687;56.232;43.854;2023-06-10T10:31:50;4.18;;;2.75;;
73452;SDS011;61687;56.232;43.854;2023-06-10T10:34:21;7.18;;;3.25;;
73452;SDS011;61687;56.232;43.854;2023-06-10T10:37:10;3.93;;;2.63;;
73452;SDS011;61687;56.232;43.854;2023-06-10T10:39:36;6.35;;;3.00;;
73452;SDS011;61687;56.232;43.854;2023-06-10T10:42:03;3.65;;;2.20;;
73452;SDS011;61687;56.232;43.854;2023-06-10T10:44:31;4.70;;;2.97;;
73452;SDS011;61687;56.232;43.854;2023-06-10T10:46:57;5.93;;;3.20;;
73452;SDS011;61687;56.232;43.854;2023-06-10T10:49:28;7.07;;;3.15;;
73452;SDS011;61687;56.232;43.854;2023-06-10T10:52:00;10.15;;;2.60;;
73452;SDS011;61687;56.232;43.854;2023-06-10T10:54:31;4.45;;;3.28;;
73452;SDS011;61687;56.232;43.854;2023-06-10T10:57:17;9.88;;;3.00;;
73452;SDS011;61687;56.232;43.854;2023-06-10T10:59:57;7.00;;;3.63;;
73452;SDS011;61687;56.232;43.854;2023-06-10T11:05:15;4.30;;;2.83;;
73452;SDS011;61687;56.232;43.854;2023-06-10T11:07:52;4.85;;;3.15;;
73452;SDS011;61687;56.232;43.854;2023-06-10T11:10:32;4.75;;;2.70;;
73452;SDS011;61687;56.232;43.854;2023-06-10T11:12:59;4.70;;;2.73;;
73452;SDS011;61687;56.232;43.854;2023-06-10T11:15:28;7.45;;;2.90;;
73452;SDS011;61687;56.232;43.854;2023-06-10T11:26:14;6.13;;;1.70;;
73452;SDS011;61687;56.232;43.854;2023-06-10T11:31:26;6.13;;;2.90;;
73452;SDS011;61687;56.232;43.854;2023-06-10T11:34:01;5.43;;;2.20;;
73452;SDS011;61687;56.232;43.854;2023-06-10T11:36:29;4.03;;;2.70;;
73452;SDS011;61687;56.232;43.854;2023-06-10T11:38:56;7.45;;;3.17;;
73452;SDS011;61687;56.232;43.854;2023-06-10T11:41:24;4.80;;;2.78;;
73452;SDS011;61687;56.232;43.854;2023-06-10T11:43:54;11.43;;;3.22;;
73452;SDS011;61687;56.232;43.854;2023-06-10T11:46:24;4.80;;;3.33;;
73452;SDS011;61687;56.232;43.854;2023-06-10T11:48:53;11.20;;;3.57;;
73452;SDS011;61687;56.232;43.854;2023-06-10T11:51:20;4.78;;;2.65;;
73452;SDS011;61687;56.232;43.854;2023-06-10T11:53:49;10.70;;;3.05;;
73452;SDS011;61687;56.232;43.854;2023-06-10T11:56:19;3.22;;;1.90;;
73452;SDS011;61687;56.232;43.854;2023-06-10T11:58:46;4.38;;;2.50;;
73452;SDS011;61687;56.232;43.854;2023-06-10T12:01:22;4.77;;;2.77;;
73452;SDS011;61687;56.232;43.854;2023-06-10T12:03:55;7.90;;;2.60;;
73452;SDS011;61687;56.232;43.854;2023-06-10T12:06:22;5.70;;;3.03;;
73452;SDS011;61687;56.232;43.854;2023-06-10T12:08:48;3.80;;;2.13;;
73452;SDS011;61687;56.232;43.854;2023-06-10T12:11:14;7.50;;;2.00;;
73452;SDS011;61687;56.232;43.854;2023-06-10T12:13:45;6.75;;;3.17;;
73452;SDS011;61687;56.232;43.854;2023-06-10T12:16:13;8.38;;;3.30;;
73452;SDS011;61687;56.232;43.854;2023-06-10T12:18:40;5.75;;;3.20;;
73452;SDS011;61687;56.232;43.854;2023-06-10T12:21:18;4.87;;;2.10;;
73452;SDS011;61687;56.232;43.854;2023-06-10T12:26:38;6.03;;;2.53;;
73452;SDS011;61687;56.232;43.854;2023-06-10T12:34:19;6.37;;;2.60;;
73452;SDS011;61687;56.232;43.854;2023-06-10T12:36:48;8.50;;;3.83;;
73452;SDS011;61687;56.232;43.854;2023-06-10T12:39:15;5.40;;;3.47;;
73452;SDS011;61687;56.232;43.854;2023-06-10T12:41:40;7.00;;;3.45;;
73452;SDS011;61687;56.232;43.854;2023-06-10T12:44:13;8.90;;;3.97;;
73452;SDS011;61687;56.232;43.854;2023-06-10T12:46:39;7.82;;;3.95;;
73452;SDS011;61687;56.232;43.854;2023-06-10T12:49:05;3.88;;;2.30;;
73452;SDS011;61687;56.232;43.854;2023-06-10T12:51:31;6.47;;;2.47;;
73452;SDS011;61687;56.232;43.854;2023-06-10T12:53:57;45.70;;;4.70;;
73452;SDS011;61687;56.232;43.854;2023-06-10T12:56:23;5.20;;;1.98;;
73452;SDS011;61687;56.232;43.854;2023-06-10T12:58:49;5.63;;;2.07;;
73452;SDS011;61687;56.232;43.854;2023-06-10T13:01:15;5.68;;;1.80;;
73452;SDS011;61687;56.232;43.854;2023-06-10T13:03:41;5.45;;;2.55;;
73452;SDS011;61687;56.232;43.854;2023-06-10T13:06:07;4.90;;;2.37;;
73452;SDS011;61687;56.232;43.854;2023-06-10T13:08:32;5.70;;;3.35;;
73452;SDS011;61687;56.232;43.854;2023-06-10T13:10:58;5.72;;;3.13;;
73452;SDS011;61687;56.232;43.854;2023-06-10T13:13:24;7.20;;;3.00;;
73452;SDS011;61687;56.232;43.854;2023-06-10T13:15:51;10.88;;;3.30;;
73452;SDS011;61687;56.232;43.854;2023-06-10T13:18:17;9.05;;;2.45;;
73452;SDS011;61687;56.232;43.854;2023-06-10T13:20:45;6.13;;;2.70;;
73452;SDS011;61687;56.232;43.854;2023-06-10T13:23:11;7.37;;;2.00;;
73452;SDS011;61687;56.232;43.854;2023-06-10T13:25:37;4.22;;;2.33;;
73452;SDS011;61687;56.232;43.854;2023-06-10T13:28:03;5.53;;;3.45;;
73452;SDS011;61687;56.232;43.854;2023-06-10T13:30:28;7.43;;;3.00;;
73452;SDS011;61687;56.232;43.854;2023-06-10T13:32:55;8.20;;;3.90;;
73452;SDS011;61687;56.232;43.854;2023-06-10T13:35:20;6.82;;;3.63;;
73452;SDS011;61687;56.232;43.854;2023-06-10T13:37:46;6.60;;;3.95;;
73452;SDS011;61687;56.232;43.854;2023-06-10T13:40:12;8.97;;;3.73;;
73452;SDS011;61687;56.232;43.854;2023-06-10T13:42:38;7.03;;;3.40;;
73452;SDS011;61687;56.232;43.854;2023-06-10T13:45:04;7.30;;;2.80;;
73452;SDS011;61687;56.232;43.854;2023-06-10T13:47:31;6.15;;;2.58;;
73452;SDS011;61687;56.232;43.854;2023-06-10T13:49:57;6.55;;;3.35;;
73452;SDS011;61687;56.232;43.854;2023-06-10T13:52:23;5.63;;;2.80;;
73452;SDS011;61687;56.232;43.854;2023-06-10T13:54:48;5.68;;;2.28;;
73452;SDS011;61687;56.232;43.854;2023-06-10T13:57:15;4.60;;;2.05;;
73452;SDS011;61687;56.232;43.854;2023-06-10T13:59:40;9.50;;;3.20;;
73452;SDS011;61687;56.232;43.854;2023-06-10T14:02:06;4.38;;;2.83;;
73452;SDS011;61687;56.232;43.854;2023-06-10T14:04:32;5.05;;;3.03;;
73452;SDS011;61687;56.232;43.854;2023-06-10T14:06:58;5.60;;;2.77;;
73452;SDS011;61687;56.232;43.854;2023-06-10T14:09:24;9.05;;;2.70;;
73452;SDS011;61687;56.232;43.854;2023-06-10T14:11:50;7.27;;;3.03;;
73452;SDS011;61687;56.232;43.854;2023-06-10T14:14:15;5.65;;;3.05;;
73452;SDS011;61687;56.232;43.854;2023-06-10T14:16:41;6.78;;;4.13;;
73452;SDS011;61687;56.232;43.854;2023-06-10T14:19:07;16.33;;;7.20;;
73452;SDS011;61687;56.232;43.854;2023-06-10T14:21:33;8.20;;;3.35;;
73452;SDS011;61687;56.232;43.854;2023-06-10T14:23:58;5.37;;;2.83;;
73452;SDS011;61687;56.232;43.854;2023-06-10T14:26:24;6.60;;;2.67;;
73452;SDS011;61687;56.232;43.854;2023-06-10T14:28:51;4.47;;;2.80;;
73452;SDS011;61687;56.232;43.854;2023-06-10T14:31:17;12.10;;;3.43;;
73452;SDS011;61687;56.232;43.854;2023-06-10T14:33:43;7.50;;;3.63;;
73452;SDS011;61687;56.232;43.854;2023-06-10T14:36:10;6.90;;;3.42;;
73452;SDS011;61687;56.232;43.854;2023-06-10T14:38:36;8.40;;;3.30;;
73452;SDS011;61687;56.232;43.854;2023-06-10T14:41:02;6.23;;;2.67;;
73452;SDS011;61687;56.232;43.854;2023-06-10T14:43:27;6.28;;;3.22;;
73452;SDS011;61687;56.232;43.854;2023-06-10T14:45:53;10.77;;;4.40;;
73452;SDS011;61687;56.232;43.854;2023-06-10T14:48:21;8.47;;;4.70;;
73452;SDS011;61687;56.232;43.854;2023-06-10T14:50:47;11.40;;;4.57;;
73452;SDS011;61687;56.232;43.854;2023-06-10T14:53:18;11.05;;;5.35;;
73452;SDS011;61687;56.232;43.854;2023-06-10T14:55:44;10.30;;;5.40;;
73452;SDS011;61687;56.232;43.854;2023-06-10T14:58:10;7.67;;;2.80;;
73452;SDS011;61687;56.232;43.854;2023-06-10T15:00:36;8.05;;;3.22;;
73452;SDS011;61687;56.232;43.854;2023-06-10T15:03:02;5.85;;;2.45;;
73452;SDS011;61687;56.232;43.854;2023-06-10T15:05:28;3.77;;;2.57;;
73452;SDS011;61687;56.232;43.854;2023-06-10T15:07:54;5.40;;;2.40;;
73452;SDS011;61687;56.232;43.854;2023-06-10T15:10:20;5.30;;;2.80;;
73452;SDS011;61687;56.232;43.854;2023-06-10T15:12:47;6.13;;;3.05;;
73452;SDS011;61687;56.232;43.854;2023-06-10T15:15:13;6.73;;;3.10;;
73452;SDS011;61687;56.232;43.854;2023-06-10T15:17:39;5.68;;;3.15;;
73452;SDS011;61687;56.232;43.854;2023-06-10T15:20:05;7.95;;;3.45;;
73452;SDS011;61687;56.232;43.854;2023-06-10T15:22:32;7.03;;;4.00;;
73452;SDS011;61687;56.232;43.854;2023-06-10T15:24:57;6.07;;;3.58;;
73452;SDS011;61687;56.232;43.854;2023-06-10T15:27:23;9.68;;;3.60;;
73452;SDS011;61687;56.232;43.854;2023-06-10T15:29:49;9.10;;;4.47;;
73452;SDS011;61687;56.232;43.854;2023-06-10T15:32:15;6.78;;;2.92;;
73452;SDS011;61687;56.232;43.854;2023-06-10T15:34:41;6.40;;;2.88;;
73452;SDS011;61687;56.232;43.854;2023-06-10T15:37:06;4.90;;;2.40;;
73452;SDS011;61687;56.232;43.854;2023-06-10T15:39:32;7.53;;;2.72;;
73452;SDS011;61687;56.232;43.854;2023-06-10T15:41:58;5.37;;;2.63;;
73452;SDS011;61687;56.232;43.854;2023-06-10T15:44:24;6.30;;;2.03;;
73452;SDS011;61687;56.232;43.854;2023-06-10T15:46:50;5.25;;;2.65;;
73452;SDS011;61687;56.232;43.854;2023-06-10T15:49:15;5.03;;;2.70;;
73452;SDS011;61687;56.232;43.854;2023-06-10T15:51:41;5.90;;;2.17;;
73452;SDS011;61687;56.232;43.854;2023-06-10T15:54:07;5.20;;;1.73;;
73452;SDS011;61687;56.232;43.854;2023-06-10T15:56:33;6.22;;;2.38;;
73452;SDS011;61687;56.232;43.854;2023-06-10T15:58:59;7.15;;;3.10;;
73452;SDS011;61687;56.232;43.854;2023-06-10T16:01:25;5.30;;;2.97;;
73452;SDS011;61687;56.232;43.854;2023-06-10T16:03:51;9.27;;;2.65;;
73452;SDS011;61687;56.232;43.854;2023-06-10T16:06:16;7.28;;;2.90;;
73452;SDS011;61687;56.232;43.854;2023-06-10T16:08:42;7.17;;;2.90;;
73452;SDS011;61687;56.232;43.854;2023-06-10T16:11:08;8.82;;;3.35;;
73452;SDS011;61687;56.232;43.854;2023-06-10T16:13:35;8.63;;;3.38;;
73452;SDS011;61687;56.232;43.854;2023-06-10T16:16:01;8.83;;;3.57;;
73452;SDS011;61687;56.232;43.854;2023-06-10T16:18:26;5.67;;;2.60;;
73452;SDS011;61687;56.232;43.854;2023-06-10T16:20:52;6.60;;;2.80;;
73452;SDS011;61687;56.232;43.854;2023-06-10T16:23:18;4.13;;;2.60;;
73452;SDS011;61687;56.232;43.854;2023-06-10T16:25:44;4.32;;;2.30;;
73452;SDS011;61687;56.232;43.854;2023-06-10T16:28:10;7.75;;;2.25;;
73452;SDS011;61687;56.232;43.854;2023-06-10T16:30:36;7.63;;;2.67;;
73452;SDS011;61687;56.232;43.854;2023-06-10T16:33:01;7.33;;;2.57;;
73452;SDS011;61687;56.232;43.854;2023-06-10T16:35:27;7.10;;;2.10;;
73452;SDS011;61687;56.232;43.854;2023-06-10T16:37:53;7.00;;;2.60;;
73452;SDS011;61687;56.232;43.854;2023-06-10T16:40:19;5.45;;;2.40;;
73452;SDS011;61687;56.232;43.854;2023-06-10T16:42:45;6.35;;;2.20;;
73452;SDS011;61687;56.232;43.854;2023-06-10T16:45:11;6.30;;;2.37;;
73452;SDS011;61687;56.232;43.854;2023-06-10T16:47:37;7.30;;;2.35;;
73452;SDS011;61687;56.232;43.854;2023-06-10T16:50:03;6.82;;;2.95;;
73452;SDS011;61687;56.232;43.854;2023-06-10T16:52:29;6.68;;;3.13;;
73452;SDS011;61687;56.232;43.854;2023-06-10T16:54:55;7.73;;;3.67;;
73452;SDS011;61687;56.232;43.854;2023-06-10T16:57:21;7.15;;;3.10;;
73452;SDS011;61687;56.232;43.854;2023-06-10T16:59:47;5.55;;;3.00;;
73452;SDS011;61687;56.232;43.854;2023-06-10T17:02:13;6.57;;;2.95;;
73452;SDS011;61687;56.232;43.854;2023-06-10T17:04:39;6.17;;;2.30;;
73452;SDS011;61687;56.232;43.854;2023-06-10T17:07:05;4.63;;;2.92;;
73452;SDS011;61687;56.232;43.854;2023-06-10T17:09:30;7.45;;;3.08;;
73452;SDS011;61687;56.232;43.854;2023-06-10T17:11:56;7.23;;;2.87;;
73452;SDS011;61687;56.232;43.854;2023-06-10T17:14:22;7.20;;;3.28;;
73452;SDS011;61687;56.232;43.854;2023-06-10T17:16:51;6.50;;;2.70;;
73452;SDS011;61687;56.232;43.854;2023-06-10T17:19:17;7.43;;;2.90;;
73452;SDS011;61687;56.232;43.854;2023-06-10T17:21:43;11.13;;;3.28;;
73452;SDS011;61687;56.232;43.854;2023-06-10T17:24:09;6.80;;;3.45;;
73452;SDS011;61687;56.232;43.854;2023-06-10T17:26:35;8.63;;;2.80;;
73452;SDS011;61687;56.232;43.854;2023-06-10T17:29:01;7.83;;;3.33;;
73452;SDS011;61687;56.232;43.854;2023-06-10T17:31:27;7.75;;;3.22;;
73452;SDS011;61687;56.232;43.854;2023-06-10T17:33:53;8.02;;;3.00;;
73452;SDS011;61687;56.232;43.854;2023-06-10T17:36:19;9.77;;;3.40;;
73452;SDS011;61687;56.232;43.854;2023-06-10T17:38:46;8.63;;;3.30;;
73452;SDS011;61687;56.232;43.854;2023-06-10T17:41:12;5.80;;;3.15;;
73452;SDS011;61687;56.232;43.854;2023-06-10T17:43:38;9.90;;;2.63;;
73452;SDS011;61687;56.232;43.854;2023-06-10T17:46:04;5.93;;;3.05;;
73452;SDS011;61687;56.232;43.854;2023-06-10T17:48:30;4.90;;;3.20;;
73452;SDS011;61687;56.232;43.854;2023-06-10T17:50:56;5.68;;;2.63;;
73452;SDS011;61687;56.232;43.854;2023-06-10T17:53:22;4.80;;;2.53;;
73452;SDS011;61687;56.232;43.854;2023-06-10T17:55:48;8.33;;;3.47;;
73452;SDS011;61687;56.232;43.854;2023-06-10T17:58:14;10.95;;;4.30;;
73452;SDS011;61687;56.232;43.854;2023-06-10T18:00:40;13.43;;;3.35;;
73452;SDS011;61687;56.232;43.854;2023-06-10T18:03:06;7.57;;;3.50;;
73452;SDS011;61687;56.232;43.854;2023-06-10T18:05:32;10.10;;;3.35;;
73452;SDS011;61687;56.232;43.854;2023-06-10T18:07:57;6.75;;;2.83;;
73452;SDS011;61687;56.232;43.854;2023-06-10T18:10:23;6.20;;;3.00;;
73452;SDS011;61687;56.232;43.854;2023-06-10T18:12:49;6.35;;;4.00;;
73452;SDS011;61687;56.232;43.854;2023-06-10T18:15:15;7.95;;;3.17;;
73452;SDS011;61687;56.232;43.854;2023-06-10T18:17:41;5.57;;;2.80;;
73452;SDS011;61687;56.232;43.854;2023-06-10T18:20:07;5.55;;;3.20;;
73452;SDS011;61687;56.232;43.854;2023-06-10T18:22:33;10.77;;;3.83;;
73452;SDS011;61687;56.232;43.854;2023-06-10T18:24:59;5.60;;;3.47;;
73452;SDS011;61687;56.232;43.854;2023-06-10T18:27:32;5.60;;;3.50;;
73452;SDS011;61687;56.232;43.854;2023-06-10T18:29:59;7.50;;;3.85;;
73452;SDS011;61687;56.232;43.854;2023-06-10T18:32:25;8.70;;;3.38;;
73452;SDS011;61687;56.232;43.854;2023-06-10T18:34:51;6.73;;;3.83;;
73452;SDS011;61687;56.232;43.854;2023-06-10T18:37:18;7.05;;;4.07;;
73452;SDS011;61687;56.232;43.854;2023-06-10T18:39:44;10.20;;;4.38;;
73452;SDS011;61687;56.232;43.854;2023-06-10T18:42:10;7.53;;;3.55;;
73452;SDS011;61687;56.232;43.854;2023-06-10T18:44:36;10.85;;;4.63;;
73452;SDS011;61687;56.232;43.854;2023-06-10T18:47:02;9.77;;;4.67;;
73452;SDS011;61687;56.232;43.854;2023-06-10T18:49:29;9.13;;;4.38;;
73452;SDS011;61687;56.232;43.854;2023-06-10T18:51:54;10.32;;;4.45;;
73452;SDS011;61687;56.232;43.854;2023-06-10T18:54:20;8.90;;;4.13;;
73452;SDS011;61687;56.232;43.854;2023-06-10T18:56:46;8.25;;;4.82;;
73452;SDS011;61687;56.232;43.854;2023-06-10T18:59:13;9.52;;;5.60;;
73452;SDS011;61687;56.232;43.854;2023-06-10T19:01:39;12.40;;;5.47;;
73452;SDS011;61687;56.232;43.854;2023-06-10T19:04:05;20.20;;;5.32;;
73452;SDS011;61687;56.232;43.854;2023-06-10T19:06:31;14.35;;;6.60;;
73452;SDS011;61687;56.232;43.854;2023-06-10T19:08:58;14.40;;;6.60;;
73452;SDS011;61687;56.232;43.854;2023-06-10T19:11:24;12.60;;;7.30;;
73452;SDS011;61687;56.232;43.854;2023-06-10T19:13:50;12.05;;;5.97;;
73452;SDS011;61687;56.232;43.854;2023-06-10T19:16:16;18.35;;;5.75;;
73452;SDS011;61687;56.232;43.854;2023-06-10T19:18:42;15.80;;;6.30;;
73452;SDS011;61687;56.232;43.854;2023-06-10T19:21:08;12.53;;;6.07;;
73452;SDS011;61687;56.232;43.854;2023-06-10T19:23:34;18.02;;;6.55;;
73452;SDS011;61687;56.232;43.854;2023-06-10T19:26:01;13.40;;;6.88;;
73452;SDS011;61687;56.232;43.854;2023-06-10T19:28:29;11.80;;;6.47;;
73452;SDS011;61687;56.232;43.854;2023-06-10T19:30:54;14.00;;;7.87;;
73452;SDS011;61687;56.232;43.854;2023-06-10T19:33:20;14.80;;;7.68;;
73452;SDS011;61687;56.232;43.854;2023-06-10T19:35:46;16.55;;;7.05;;
73452;SDS011;61687;56.232;43.854;2023-06-10T19:38:12;18.80;;;9.27;;
73452;SDS011;61687;56.232;43.854;2023-06-10T19:40:38;16.63;;;8.77;;
73452;SDS011;61687;56.232;43.854;2023-06-10T19:43:03;15.60;;;8.57;;
73452;SDS011;61687;56.232;43.854;2023-06-10T19:45:30;15.35;;;8.48;;
73452;SDS011;61687;56.232;43.854;2023-06-10T19:47:56;16.60;;;7.95;;
73452;SDS011;61687;56.232;43.854;2023-06-10T19:50:21;14.87;;;8.77;;
73452;SDS011;61687;56.232;43.854;2023-06-10T19:52:47;13.88;;;7.47;;
73452;SDS011;61687;56.232;43.854;2023-06-10T19:55:13;18.08;;;8.55;;
73452;SDS011;61687;56.232;43.854;2023-06-10T19:57:40;14.63;;;8.30;;
73452;SDS011;61687;56.232;43.854;2023-06-10T20:00:06;16.02;;;8.13;;
73452;SDS011;61687;56.232;43.854;2023-06-10T20:02:38;17.85;;;8.75;;
73452;SDS011;61687;56.232;43.854;2023-06-10T20:05:04;23.97;;;8.87;;
73452;SDS011;61687;56.232;43.854;2023-06-10T20:07:30;20.13;;;9.90;;
73452;SDS011;61687;56.232;43.854;2023-06-10T20:09:56;20.27;;;8.88;;
73452;SDS011;61687;56.232;43.854;2023-06-10T20:12:22;20.55;;;9.38;;
73452;SDS011;61687;56.232;43.854;2023-06-10T20:14:48;20.23;;;9.13;;
73452;SDS011;61687;56.232;43.854;2023-06-10T20:17:14;20.67;;;9.30;;
73452;SDS011;61687;56.232;43.854;2023-06-10T20:19:41;16.73;;;8.43;;
73452;SDS011;61687;56.232;43.854;2023-06-10T20:22:07;22.45;;;9.52;;
73452;SDS011;61687;56.232;43.854;2023-06-10T20:24:33;17.00;;;8.43;;
73452;SDS011;61687;56.232;43.854;2023-06-10T20:26:59;16.02;;;9.73;;
73452;SDS011;61687;56.232;43.854;2023-06-10T20:29:25;15.75;;;8.77;;
73452;SDS011;61687;56.232;43.854;2023-06-10T20:31:53;19.02;;;10.43;;
73452;SDS011;61687;56.232;43.854;2023-06-10T20:34:19;27.63;;;10.90;;
73452;SDS011;61687;56.232;43.854;2023-06-10T20:36:46;15.90;;;10.10;;
73452;SDS011;61687;56.232;43.854;2023-06-10T20:39:12;19.23;;;10.35;;
73452;SDS011;61687;56.232;43.854;2023-06-10T20:41:38;21.42;;;10.35;;
73452;SDS011;61687;56.232;43.854;2023-06-10T20:44:04;18.57;;;10.27;;
73452;SDS011;61687;56.232;43.854;2023-06-10T20:46:30;18.08;;;10.90;;
73452;SDS011;61687;56.232;43.854;2023-06-10T20:48:56;22.85;;;10.40;;
73452;SDS011;61687;56.232;43.854;2023-06-10T20:51:22;24.07;;;11.07;;
73452;SDS011;61687;56.232;43.854;2023-06-10T20:53:48;29.10;;;11.45;;
73452;SDS011;61687;56.232;43.854;2023-06-10T20:56:13;23.65;;;10.88;;
73452;SDS011;61687;56.232;43.854;2023-06-10T20:58:39;20.27;;;11.50;;